This is the latest recevied weather packets stored in our database for station/object DM3FAM-10. If no packets are shown the sender has not sent any weather packets the latest 10 day(s).
| Time | Temp. | Humidity | Pressure | Rain* | Wind** | Luminosity | Snow |
|---|---|---|---|---|---|---|---|
| 1777730205 | 32.78° C | 25% | 969.4 hPa | - | - | - | - |
| 1777729305 | 33.33° C | 24% | 969.5 hPa | - | - | - | - |
| 1777728405 | 32.78° C | 24% | 969.9 hPa | - | - | - | - |
| 1777727505 | 38.33° C | 19% | 970 hPa | - | - | - | - |
| 1777726605 | 36.67° C | 21% | 970.2 hPa | - | - | - | - |
| 1777725705 | 37.78° C | 20% | 970.4 hPa | - | - | - | - |
| 1777724805 | 36.67° C | 21% | 970.6 hPa | - | - | - | - |
| 1777723905 | 35° C | 24% | 970.7 hPa | - | - | - | - |
| 1777723005 | 33.89° C | 25% | 970.9 hPa | - | - | - | - |
| 1777722105 | 33.33° C | 26% | 971.2 hPa | - | - | - | - |
| 1777721204 | 31.11° C | 28% | 971.4 hPa | - | - | - | - |
| 1777720304 | 30° C | 30% | 971.4 hPa | - | - | - | - |
| 1777719404 | 30.56° C | 30% | 971.6 hPa | - | - | - | - |
| 1777718504 | 30° C | 30% | 971.9 hPa | - | - | - | - |
| 1777717604 | 31.67° C | 28% | 972 hPa | - | - | - | - |
| 1777716704 | 32.22° C | 27% | 972.2 hPa | - | - | - | - |
| 1777715804 | 30° C | 30% | 972.4 hPa | - | - | - | - |
| 1777714904 | 31.11° C | 30% | 972.6 hPa | - | - | - | - |
| 1777714004 | 30° C | 32% | 972.7 hPa | - | - | - | - |
| 1777713104 | 27.78° C | 35% | 972.9 hPa | - | - | - | - |
| 1777712204 | 25.56° C | 40% | 973 hPa | - | - | - | - |
| 1777711304 | 21.67° C | 53% | 973 hPa | - | - | - | - |
| 1777710404 | 19.44° C | 58% | 973.1 hPa | - | - | - | - |
| 1777709504 | 17.78° C | 61% | 973 hPa | - | - | - | - |
| 1777708604 | 16.67° C | 65% | 973.1 hPa | - | - | - | - |
* Rain since midnight (hover to see other rain measurements)
** Current wind speed in m/s (hover to see current wind gust speed)